createdAt,value
2023-02-19T00:02:53.149Z,10.57
2023-02-19T00:07:54.476Z,10.59
2023-02-19T00:12:55.811Z,10.55
2023-02-19T00:17:57.117Z,10.51
2023-02-19T00:22:58.578Z,10.50
2023-02-19T00:28:00.531Z,10.42
2023-02-19T00:33:01.898Z,10.57
2023-02-19T00:38:03.747Z,10.55
2023-02-19T00:43:05.080Z,10.52
2023-02-19T00:48:06.365Z,10.55
2023-02-19T00:53:07.679Z,10.52
2023-02-19T00:58:09.059Z,10.38
2023-02-19T01:03:10.406Z,10.44
2023-02-19T01:08:11.736Z,10.52
2023-02-19T01:13:13.286Z,10.47
2023-02-19T01:18:14.748Z,10.59
2023-02-19T01:23:16.082Z,10.55
2023-02-19T01:28:17.434Z,10.43
2023-02-19T01:33:18.796Z,10.48
2023-02-19T01:38:20.215Z,10.46
2023-02-19T01:43:21.577Z,10.38
2023-02-19T01:48:37.599Z,10.50
2023-02-19T01:53:44.324Z,10.48
2023-02-19T01:58:46.274Z,10.45
2023-02-19T02:03:49.434Z,10.43
2023-02-19T02:09:12.181Z,10.43
2023-02-19T02:14:14.717Z,10.35
2023-02-19T02:19:47.051Z,10.41
2023-02-19T02:25:16.304Z,10.48
2023-02-19T02:30:20.738Z,10.42
2023-02-19T02:35:27.481Z,10.40
2023-02-19T02:40:29.011Z,10.26
2023-02-19T02:45:35.556Z,10.30
2023-02-19T02:51:06.795Z,10.24
2023-02-19T02:56:11.028Z,10.20
2023-02-19T03:01:38.672Z,10.27
2023-02-19T03:06:41.950Z,10.05
2023-02-19T03:12:06.352Z,10.20
2023-02-19T03:17:33.748Z,10.19
2023-02-19T03:22:37.758Z,10.25
2023-02-19T03:27:42.533Z,10.29
2023-02-19T03:32:55.734Z,10.23
2023-02-19T03:38:06.740Z,10.30
2023-02-19T03:43:34.687Z,10.25
2023-02-19T03:48:41.189Z,10.00
2023-02-19T03:54:03.985Z,10.24
2023-02-19T03:59:13.007Z,10.26
2023-02-19T04:04:25.213Z,10.23
2023-02-19T04:09:33.677Z,10.33
2023-02-19T04:14:53.579Z,10.27
2023-02-19T04:19:58.812Z,10.23
2023-02-19T04:25:00.883Z,10.17
2023-02-19T04:30:02.455Z,10.20
2023-02-19T04:35:03.843Z,10.22
2023-02-19T04:40:06.230Z,10.13
2023-02-19T04:45:08.073Z,10.16
2023-02-19T04:50:09.421Z,10.20
2023-02-19T04:55:10.718Z,10.24
2023-02-19T05:00:12.617Z,10.22
2023-02-19T05:05:13.943Z,10.41
2023-02-19T05:10:15.410Z,10.40
2023-02-19T05:15:16.823Z,10.33
2023-02-19T05:20:18.330Z,10.33
2023-02-19T05:25:19.626Z,10.39
2023-02-19T05:30:20.993Z,10.36
2023-02-19T05:35:22.383Z,10.44
2023-02-19T05:40:24.106Z,10.40
2023-02-19T05:45:26.303Z,10.34
2023-02-19T05:50:27.839Z,10.38
2023-02-19T05:55:33.316Z,10.38
2023-02-19T06:00:34.897Z,10.35
2023-02-19T06:05:37.476Z,10.33
2023-02-19T06:10:41.289Z,10.39
2023-02-19T06:15:42.675Z,10.47
2023-02-19T06:20:44.081Z,10.36
2023-02-19T06:25:45.539Z,10.31
2023-02-19T06:30:47.227Z,10.32
2023-02-19T06:35:48.528Z,10.43
2023-02-19T06:40:49.866Z,10.55
2023-02-19T06:45:51.310Z,10.54
2023-02-19T06:50:53.123Z,10.44
2023-02-19T06:56:20.728Z,10.50
2023-02-19T07:01:23.969Z,10.68
2023-02-19T07:06:26.545Z,10.75
2023-02-19T07:11:30.790Z,10.74
2023-02-19T07:16:32.302Z,10.64
2023-02-19T07:21:37.564Z,10.71
2023-02-19T07:26:38.913Z,10.59
2023-02-19T07:31:40.297Z,10.65
2023-02-19T07:36:41.915Z,10.46
2023-02-19T07:41:43.340Z,10.57
2023-02-19T07:46:45.013Z,10.49
2023-02-19T07:51:46.301Z,10.43
2023-02-19T07:56:47.886Z,10.61
2023-02-19T08:02:08.035Z,10.52
2023-02-19T08:07:09.441Z,10.69
2023-02-19T08:12:30.098Z,10.60
2023-02-19T08:17:31.465Z,10.76
2023-02-19T08:22:32.827Z,10.79
2023-02-19T08:27:34.130Z,10.57
2023-02-19T08:32:35.498Z,10.59
2023-02-19T08:37:36.808Z,10.46
2023-02-19T08:42:38.253Z,10.52
2023-02-19T08:47:39.902Z,10.73
2023-02-19T08:52:41.266Z,11.01
2023-02-19T08:57:42.783Z,11.03
2023-02-19T09:02:44.336Z,11.20
2023-02-19T09:07:45.646Z,11.40
2023-02-19T09:12:48.243Z,11.48
2023-02-19T09:17:53.150Z,11.48
2023-02-19T09:22:59.078Z,11.53
2023-02-19T09:28:00.396Z,11.60
2023-02-19T09:33:01.784Z,11.48
2023-02-19T09:38:03.360Z,11.48
2023-02-19T09:43:20.981Z,11.62
2023-02-19T09:48:22.587Z,11.41
2023-02-19T09:53:29.709Z,11.34
2023-02-19T09:58:34.678Z,11.31
2023-02-19T10:03:41.304Z,11.36
2023-02-19T10:08:45.916Z,11.22
2023-02-19T10:14:09.285Z,11.31
2023-02-19T10:19:12.929Z,11.19
2023-02-19T10:24:23.339Z,11.17
2023-02-19T10:29:24.987Z,11.12
2023-02-19T10:34:26.351Z,11.04
2023-02-19T10:39:46.678Z,11.06
2023-02-19T10:44:54.173Z,11.14
2023-02-19T10:49:59.480Z,11.04
2023-02-19T10:55:26.293Z,11.14
2023-02-19T11:00:30.533Z,11.18
2023-02-19T11:05:32.118Z,11.13
2023-02-19T11:10:42.462Z,11.18
2023-02-19T11:15:44.306Z,11.38
2023-02-19T11:21:00.407Z,11.70
2023-02-19T11:26:06.448Z,11.76
2023-02-19T11:31:19.937Z,12.76
2023-02-19T11:36:29.484Z,14.16
2023-02-19T11:41:49.894Z,17.95
2023-02-19T11:47:04.849Z,16.43
2023-02-19T11:52:21.355Z,19.03
2023-02-19T11:57:35.824Z,17.01
2023-02-19T12:03:02.265Z,17.93
2023-02-19T12:08:22.749Z,19.46
2023-02-19T12:13:38.690Z,19.74
2023-02-19T12:19:08.220Z,20.92
2023-02-19T12:24:54.057Z,17.85
2023-02-19T12:30:02.451Z,16.09
2023-02-19T12:35:33.305Z,15.79
2023-02-19T12:40:50.010Z,15.32
2023-02-19T12:45:57.970Z,16.04
2023-02-19T12:51:07.976Z,14.71
2023-02-19T12:56:17.092Z,13.94
2023-02-19T13:01:23.943Z,14.88
2023-02-19T13:06:40.064Z,16.25
2023-02-19T13:11:49.142Z,16.38
2023-02-19T13:16:56.236Z,17.34
2023-02-19T13:22:27.639Z,16.02
2023-02-19T13:33:13.633Z,23.49
2023-02-19T13:38:15.489Z,24.77
2023-02-19T13:43:29.166Z,21.70
2023-02-19T13:48:33.803Z,18.23
2023-02-19T13:53:41.520Z,18.12
2023-02-19T13:58:53.794Z,17.23
2023-02-19T14:04:08.165Z,16.24
2023-02-19T14:09:41.412Z,15.54
2023-02-19T14:14:46.777Z,15.36
2023-02-19T14:19:52.741Z,15.08
2023-02-19T14:24:55.047Z,14.55
2023-02-19T14:29:56.885Z,13.95
2023-02-19T14:34:58.231Z,13.55
2023-02-19T14:39:59.812Z,13.30
2023-02-19T14:45:06.197Z,13.28
2023-02-19T14:50:14.950Z,13.14
2023-02-19T14:55:30.395Z,14.88
2023-02-19T15:00:41.674Z,17.38
2023-02-19T15:05:45.222Z,18.41
2023-02-19T15:10:46.975Z,16.42
2023-02-19T15:15:48.326Z,15.02
2023-02-19T15:20:51.551Z,14.35
2023-02-19T15:25:53.204Z,13.95
2023-02-19T15:30:57.670Z,13.41
2023-02-19T15:36:04.426Z,13.18
2023-02-19T15:41:05.877Z,13.00
2023-02-19T15:46:15.463Z,12.67
2023-02-19T15:51:25.468Z,12.48
2023-02-19T15:56:33.359Z,12.45
2023-02-19T16:01:38.837Z,12.18
2023-02-19T16:06:58.966Z,12.17
2023-02-19T16:12:01.897Z,12.24
2023-02-19T16:17:09.419Z,12.02
2023-02-19T16:22:12.816Z,12.09
2023-02-19T16:27:30.748Z,11.68
2023-02-19T16:32:32.251Z,11.66
2023-02-19T16:37:38.966Z,11.57
2023-02-19T16:42:49.691Z,11.73
2023-02-19T16:47:51.764Z,11.72
2023-02-19T16:52:58.369Z,11.52
2023-02-19T16:58:01.164Z,11.53
2023-02-19T17:03:09.033Z,11.50
2023-02-19T17:08:25.618Z,11.56
2023-02-19T17:13:26.890Z,11.59
2023-02-19T17:18:28.611Z,11.83
2023-02-19T17:23:29.934Z,11.92
2023-02-19T17:28:31.438Z,11.85
2023-02-19T17:33:32.756Z,11.70
2023-02-19T17:38:34.169Z,11.54
2023-02-19T17:43:35.469Z,11.52
2023-02-19T17:48:36.788Z,11.55
2023-02-19T17:53:38.071Z,11.45
2023-02-19T17:58:39.355Z,11.37
2023-02-19T18:03:40.737Z,11.26
2023-02-19T18:08:53.178Z,11.43
2023-02-19T18:13:54.625Z,11.41
2023-02-19T18:18:58.184Z,11.36
2023-02-19T18:23:59.767Z,11.20
2023-02-19T18:29:01.225Z,11.20
2023-02-19T18:34:02.934Z,11.13
2023-02-19T18:39:04.449Z,11.20
2023-02-19T18:44:05.829Z,11.09
2023-02-19T18:49:07.175Z,10.96
2023-02-19T18:54:08.498Z,11.02
2023-02-19T18:59:10.217Z,10.91
2023-02-19T19:04:12.059Z,11.11
2023-02-19T19:09:13.420Z,11.07
2023-02-19T19:14:14.862Z,10.96
2023-02-19T19:19:18.884Z,10.87
2023-02-19T19:24:21.195Z,10.98
2023-02-19T19:29:23.062Z,11.01
2023-02-19T19:34:24.778Z,10.98
2023-02-19T19:39:26.168Z,11.01
2023-02-19T19:44:27.646Z,11.05
2023-02-19T19:49:28.996Z,10.99
2023-02-19T19:54:30.311Z,11.10
2023-02-19T19:59:32.438Z,10.93
2023-02-19T20:04:33.868Z,10.75
2023-02-19T20:09:35.154Z,10.75
2023-02-19T20:14:36.476Z,10.94
2023-02-19T20:19:37.816Z,11.11
2023-02-19T20:24:39.163Z,10.70
2023-02-19T20:29:40.554Z,10.99
2023-02-19T20:34:41.878Z,10.82
2023-02-19T20:39:43.235Z,10.68
2023-02-19T20:44:44.783Z,10.65
2023-02-19T20:49:47.136Z,10.82
2023-02-19T20:54:48.443Z,10.74
2023-02-19T20:59:49.795Z,10.83
2023-02-19T21:04:51.224Z,10.91
2023-02-19T21:09:52.883Z,10.80
2023-02-19T21:14:54.238Z,10.68
2023-02-19T21:19:55.786Z,10.70
2023-02-19T21:24:57.178Z,10.72
2023-02-19T21:29:58.524Z,10.70
2023-02-19T21:34:59.886Z,10.50
2023-02-19T21:40:01.557Z,10.53
2023-02-19T21:45:03.653Z,10.67
2023-02-19T21:50:05.651Z,10.58
2023-02-19T21:55:07.094Z,10.58
2023-02-19T22:00:09.543Z,10.27
2023-02-19T22:05:11.075Z,10.47
2023-02-19T22:10:13.444Z,10.13
2023-02-19T22:15:15.197Z,10.59
2023-02-19T22:20:17.246Z,10.55
2023-02-19T22:25:18.685Z,10.50
2023-02-19T22:30:20.287Z,10.33
2023-02-19T22:35:21.930Z,9.99
2023-02-19T22:40:23.228Z,9.97
2023-02-19T22:45:25.464Z,10.01
2023-02-19T22:50:26.875Z,10.29
2023-02-19T22:55:28.549Z,10.27
2023-02-19T23:00:29.848Z,9.89
2023-02-19T23:05:32.296Z,10.04
2023-02-19T23:10:33.714Z,10.20
2023-02-19T23:15:35.118Z,10.33
2023-02-19T23:20:36.534Z,10.13
2023-02-19T23:25:37.942Z,10.17
2023-02-19T23:30:39.429Z,10.19
2023-02-19T23:35:40.961Z,10.37
2023-02-19T23:40:42.984Z,10.30
2023-02-19T23:45:44.617Z,10.14
2023-02-19T23:50:46.137Z,10.09
2023-02-19T23:55:47.526Z,10.10
